createdAt,value
2023-05-15T00:01:49.944Z,18.00
2023-05-15T00:05:59.010Z,14.77
2023-05-15T00:10:08.828Z,20.23
2023-05-15T00:14:17.555Z,19.63
2023-05-15T00:18:29.205Z,19.60
2023-05-15T00:22:37.892Z,18.10
2023-05-15T00:26:46.722Z,17.93
2023-05-15T00:30:55.517Z,20.50
2023-05-15T00:35:05.250Z,22.87
2023-05-15T00:39:13.927Z,22.23
2023-05-15T00:43:23.366Z,19.80
2023-05-15T00:47:33.376Z,17.73
2023-05-15T00:51:45.393Z,22.27
2023-05-15T00:55:59.182Z,19.87
2023-05-15T01:00:10.489Z,17.17
2023-05-15T01:04:19.237Z,17.10
2023-05-15T01:08:44.999Z,16.60
2023-05-15T01:12:56.160Z,17.00
2023-05-15T01:17:04.886Z,21.20
2023-05-15T01:21:19.558Z,21.13
2023-05-15T01:25:40.268Z,17.67
2023-05-15T01:29:52.067Z,16.07
2023-05-15T01:34:04.139Z,15.70
2023-05-15T01:38:19.664Z,18.93
2023-05-15T01:42:31.369Z,16.30
2023-05-15T01:46:44.192Z,20.37
2023-05-15T01:50:57.485Z,14.33
2023-05-15T01:55:08.256Z,17.27
2023-05-15T01:59:18.725Z,18.70
2023-05-15T02:03:27.960Z,21.53
2023-05-15T02:07:42.097Z,16.40
2023-05-15T02:11:52.041Z,17.97
2023-05-15T02:16:00.824Z,19.13
2023-05-15T02:20:10.185Z,17.03
2023-05-15T02:24:18.860Z,16.00
2023-05-15T02:28:33.521Z,17.13
2023-05-15T02:32:48.232Z,19.80
2023-05-15T02:36:59.489Z,16.80
2023-05-15T02:41:10.342Z,17.37
2023-05-15T02:45:20.088Z,16.10
2023-05-15T02:49:28.850Z,21.70
2023-05-15T02:53:44.398Z,22.90
2023-05-15T02:57:53.039Z,15.83
2023-05-15T03:02:03.503Z,26.43
2023-05-15T03:06:12.164Z,23.43
2023-05-15T03:10:22.478Z,22.90
2023-05-15T03:14:33.219Z,21.03
2023-05-15T03:18:42.418Z,18.20
2023-05-15T03:22:51.192Z,19.80
2023-05-15T03:26:59.818Z,26.17
2023-05-15T03:31:11.283Z,20.13
2023-05-15T03:35:20.353Z,17.30
2023-05-15T03:39:29.083Z,23.77
2023-05-15T03:43:37.816Z,19.13
2023-05-15T03:47:46.635Z,18.57
2023-05-15T03:51:57.575Z,23.00
2023-05-15T03:56:06.685Z,16.03
2023-05-15T04:00:16.958Z,17.30
2023-05-15T04:04:25.882Z,15.83
2023-05-15T04:08:34.525Z,20.70
2023-05-15T04:12:43.344Z,19.77
2023-05-15T04:16:52.149Z,18.03
2023-05-15T04:25:18.229Z,18.77
2023-05-15T04:29:26.824Z,20.07
2023-05-15T04:33:35.439Z,20.10
2023-05-15T04:37:46.158Z,15.57
2023-05-15T04:41:54.766Z,14.63
2023-05-15T04:46:03.433Z,18.93
2023-05-15T04:50:12.346Z,17.00
2023-05-15T04:54:21.037Z,15.97
2023-05-15T04:58:29.760Z,21.90
2023-05-15T05:02:39.059Z,16.77
2023-05-15T05:06:48.367Z,20.17
2023-05-15T05:11:00.629Z,20.93
2023-05-15T05:15:11.462Z,25.37
2023-05-15T05:19:20.086Z,16.87
2023-05-15T05:23:29.545Z,17.33
2023-05-15T05:27:38.121Z,19.20
2023-05-15T05:31:49.120Z,19.77
2023-05-15T05:35:57.779Z,19.93
2023-05-15T05:40:08.690Z,21.13
2023-05-15T05:44:17.303Z,21.20
2023-05-15T05:48:26.831Z,19.60
2023-05-15T05:52:35.460Z,21.57
2023-05-15T05:56:44.405Z,27.40
2023-05-15T06:00:53.095Z,26.50
2023-05-15T06:05:01.777Z,20.00
2023-05-15T06:09:11.400Z,20.10
2023-05-15T06:13:21.166Z,19.10
2023-05-15T06:17:29.836Z,19.90
2023-05-15T06:21:38.426Z,19.13
2023-05-15T06:25:47.090Z,18.50
2023-05-15T06:29:55.781Z,22.60
2023-05-15T06:34:04.532Z,27.30
2023-05-15T06:38:14.468Z,21.80
2023-05-15T06:42:27.414Z,21.03
2023-05-15T06:46:37.404Z,25.13
2023-05-15T06:50:46.213Z,23.80
2023-05-15T06:54:54.934Z,28.13
2023-05-15T06:59:03.664Z,23.80
2023-05-15T07:03:13.996Z,17.80
2023-05-15T07:07:23.012Z,19.63
2023-05-15T07:11:34.530Z,21.70
2023-05-15T07:15:43.194Z,24.83
2023-05-15T07:19:51.940Z,24.30
2023-05-15T07:24:00.773Z,20.93
2023-05-15T07:28:09.495Z,20.50
2023-05-15T07:32:18.311Z,20.17
2023-05-15T07:36:27.022Z,22.97
2023-05-15T07:40:35.789Z,18.87
2023-05-15T07:44:45.947Z,20.40
2023-05-15T07:48:54.786Z,22.93
2023-05-15T07:53:03.358Z,18.00
2023-05-15T07:57:13.010Z,20.40
2023-05-15T08:01:21.682Z,23.07
2023-05-15T08:05:30.441Z,22.07
2023-05-15T08:09:39.148Z,21.63
2023-05-15T08:13:48.200Z,23.60
2023-05-15T08:17:56.846Z,22.40
2023-05-15T08:22:05.971Z,17.30
2023-05-15T08:26:14.585Z,21.10
2023-05-15T08:30:23.425Z,21.10
2023-05-15T08:34:32.074Z,18.87
2023-05-15T08:38:40.788Z,18.30
2023-05-15T08:42:55.536Z,17.50
2023-05-15T08:47:06.040Z,20.10
2023-05-15T08:51:15.702Z,21.23
2023-05-15T08:55:26.220Z,17.20
2023-05-15T08:59:35.502Z,20.30
2023-05-15T09:03:44.189Z,18.07
2023-05-15T09:07:55.009Z,17.70
2023-05-15T09:12:05.323Z,16.30
2023-05-15T09:16:14.093Z,20.03
2023-05-15T09:20:34.225Z,15.27
2023-05-15T09:24:42.956Z,21.03
2023-05-15T09:28:53.114Z,13.60
2023-05-15T09:33:04.609Z,16.33
2023-05-15T09:37:31.269Z,13.17
2023-05-15T09:41:44.341Z,19.13
2023-05-15T09:45:53.194Z,14.47
2023-05-15T09:50:02.162Z,14.00
2023-05-15T09:54:14.988Z,16.10
2023-05-15T09:58:23.931Z,16.00
2023-05-15T10:02:34.693Z,13.17
2023-05-15T10:06:46.644Z,13.80
2023-05-15T10:11:14.699Z,14.87
2023-05-15T10:15:24.139Z,12.43
2023-05-15T10:19:33.292Z,12.17
2023-05-15T10:23:44.260Z,14.00
2023-05-15T10:27:54.428Z,15.30
2023-05-15T10:32:03.512Z,13.43
2023-05-15T10:36:12.613Z,12.20
2023-05-15T10:40:22.793Z,13.70
2023-05-15T10:44:31.610Z,11.23
2023-05-15T10:48:41.066Z,13.10
2023-05-15T10:52:54.189Z,14.13
2023-05-15T10:57:02.940Z,16.10
2023-05-15T11:01:26.661Z,14.10
2023-05-15T11:05:38.352Z,12.17
2023-05-15T11:09:47.340Z,13.23
2023-05-15T11:14:11.533Z,7.33
2023-05-15T11:18:22.254Z,6.43
2023-05-15T11:22:40.262Z,6.63
2023-05-15T11:26:51.976Z,9.33
2023-05-15T11:31:06.436Z,12.03
2023-05-15T11:35:33.480Z,9.70
2023-05-15T11:39:42.522Z,8.17
2023-05-15T11:43:52.726Z,8.47
2023-05-15T11:48:03.704Z,13.63
2023-05-15T11:52:12.493Z,8.73
2023-05-15T11:56:23.694Z,14.33
2023-05-15T12:00:32.583Z,12.80
2023-05-15T12:04:41.273Z,17.63
2023-05-15T12:08:54.643Z,17.67
2023-05-15T12:13:04.616Z,15.87
2023-05-15T12:17:13.422Z,14.40
2023-05-15T12:21:22.142Z,15.90
2023-05-15T12:25:32.107Z,13.80
2023-05-15T12:29:42.932Z,11.83
2023-05-15T12:33:52.170Z,11.87
2023-05-15T12:38:02.541Z,16.07
2023-05-15T12:42:11.210Z,18.40
2023-05-15T12:46:24.924Z,16.63
2023-05-15T12:50:37.072Z,21.53
2023-05-15T12:54:46.084Z,18.17
2023-05-15T12:58:56.479Z,19.13
2023-05-15T13:03:06.352Z,14.60
2023-05-15T13:07:18.240Z,15.07
2023-05-15T13:11:29.965Z,13.57
2023-05-15T13:15:40.764Z,15.00
2023-05-15T13:19:49.547Z,12.50
2023-05-15T13:23:58.479Z,12.27
2023-05-15T13:28:08.052Z,16.13
2023-05-15T13:32:18.610Z,15.00
2023-05-15T13:36:27.034Z,11.13
2023-05-15T13:40:38.634Z,17.33
2023-05-15T13:44:47.362Z,17.23
2023-05-15T13:48:55.952Z,15.70
2023-05-15T13:53:04.565Z,18.07
2023-05-15T13:57:13.196Z,17.90
2023-05-15T14:01:22.355Z,19.47
2023-05-15T14:05:31.283Z,25.23
2023-05-15T14:09:40.096Z,22.67
2023-05-15T14:13:48.899Z,21.67
2023-05-15T14:17:57.637Z,18.83
2023-05-15T14:22:06.460Z,21.60
2023-05-15T14:26:15.186Z,22.60
2023-05-15T14:30:24.713Z,17.50
2023-05-15T14:34:34.696Z,17.07
2023-05-15T14:38:44.946Z,21.00
2023-05-15T14:42:53.597Z,19.30
2023-05-15T14:47:10.182Z,20.10
2023-05-15T14:51:20.000Z,22.63
2023-05-15T14:55:28.899Z,21.67
2023-05-15T14:59:37.628Z,26.33
2023-05-15T15:03:46.365Z,28.00
2023-05-15T15:08:03.905Z,24.90
2023-05-15T15:12:12.588Z,31.20
2023-05-15T15:16:24.286Z,27.43
2023-05-15T15:20:34.094Z,27.90
2023-05-15T15:24:42.842Z,27.83
2023-05-15T15:28:51.751Z,24.80
2023-05-15T15:33:00.781Z,26.77
2023-05-15T15:37:09.420Z,26.83
2023-05-15T15:41:18.359Z,26.70
2023-05-15T15:45:27.112Z,25.70
2023-05-15T15:49:35.858Z,25.57
2023-05-15T15:53:44.590Z,22.10
2023-05-15T15:57:53.222Z,15.43
2023-05-15T16:02:01.912Z,18.97
2023-05-15T16:06:13.584Z,14.10
2023-05-15T16:10:22.244Z,15.53
2023-05-15T16:14:31.653Z,18.63
2023-05-15T16:18:40.455Z,18.27
2023-05-15T16:22:49.283Z,24.80
2023-05-15T16:26:58.107Z,23.37
2023-05-15T16:31:06.885Z,26.87
2023-05-15T16:35:15.687Z,25.97
2023-05-15T16:39:26.559Z,24.73
2023-05-15T16:43:35.254Z,20.13
2023-05-15T16:47:44.036Z,22.60
2023-05-15T16:51:52.851Z,20.53
2023-05-15T16:56:01.485Z,16.93
2023-05-15T17:00:10.920Z,21.40
2023-05-15T17:04:19.659Z,17.17
2023-05-15T17:08:28.295Z,18.43
2023-05-15T17:12:37.334Z,17.27
2023-05-15T17:16:46.134Z,15.67
2023-05-15T17:20:54.903Z,17.87
2023-05-15T17:25:04.234Z,14.93
2023-05-15T17:33:57.340Z,15.57
2023-05-15T17:38:05.930Z,16.83
2023-05-15T17:42:14.591Z,15.20
2023-05-15T17:46:23.244Z,15.53
2023-05-15T17:50:31.883Z,14.03
2023-05-15T17:54:40.527Z,14.03
2023-05-15T17:58:49.139Z,16.30
2023-05-15T18:02:57.909Z,15.37
2023-05-15T18:07:06.630Z,13.30
2023-05-15T18:11:22.539Z,12.70
2023-05-15T18:15:26.274Z,16.43
2023-05-15T18:19:35.116Z,13.77
2023-05-15T18:23:43.745Z,7.50
2023-05-15T18:27:55.036Z,13.00
2023-05-15T18:32:03.721Z,9.93
2023-05-15T18:36:12.506Z,7.10
2023-05-15T18:40:21.659Z,9.63
2023-05-15T18:44:31.910Z,8.60
2023-05-15T18:48:40.542Z,10.53
2023-05-15T18:52:49.374Z,7.77
2023-05-15T18:56:58.016Z,9.07
2023-05-15T19:01:06.649Z,6.50
2023-05-15T19:05:15.697Z,13.73
2023-05-15T19:09:24.405Z,6.20
2023-05-15T19:13:33.264Z,7.33
2023-05-15T19:17:42.546Z,13.43
2023-05-15T19:21:52.943Z,5.60
2023-05-15T19:26:01.943Z,7.50
2023-05-15T19:30:10.920Z,10.67
2023-05-15T19:34:19.518Z,9.33
2023-05-15T19:38:28.235Z,8.07
2023-05-15T19:42:36.909Z,6.90
2023-05-15T19:46:46.699Z,9.57
2023-05-15T19:50:55.552Z,8.27
2023-05-15T19:55:04.443Z,12.30
2023-05-15T19:59:13.159Z,7.53
2023-05-15T20:03:22.319Z,7.60
2023-05-15T20:07:30.955Z,11.20
2023-05-15T20:11:39.662Z,10.40
2023-05-15T20:15:48.766Z,6.80
2023-05-15T20:19:59.364Z,8.47
2023-05-15T20:24:08.216Z,9.10
2023-05-15T20:28:17.866Z,9.00
2023-05-15T20:32:26.931Z,7.07
2023-05-15T20:36:37.587Z,7.43
2023-05-15T20:40:46.515Z,8.60
2023-05-15T20:44:55.152Z,7.23
2023-05-15T20:49:03.872Z,7.60
2023-05-15T20:53:13.229Z,6.83
2023-05-15T20:57:21.820Z,11.80
2023-05-15T21:01:30.522Z,11.30
2023-05-15T21:05:39.280Z,8.13
2023-05-15T21:09:48.101Z,10.10
2023-05-15T21:14:16.130Z,8.40
2023-05-15T21:18:24.757Z,5.73
2023-05-15T21:22:33.363Z,8.83
2023-05-15T21:26:42.022Z,13.50
2023-05-15T21:30:50.668Z,7.43
2023-05-15T21:34:59.331Z,10.43
2023-05-15T21:39:09.320Z,17.83
2023-05-15T21:43:17.968Z,11.60
2023-05-15T21:47:26.638Z,6.97
2023-05-15T21:51:54.674Z,16.53
2023-05-15T21:56:04.123Z,4.80
2023-05-15T22:00:14.017Z,14.73
2023-05-15T22:04:35.113Z,4.40
2023-05-15T22:08:43.834Z,6.13
2023-05-15T22:12:52.463Z,5.73
2023-05-15T22:17:01.624Z,10.30
2023-05-15T22:21:10.337Z,9.70
2023-05-15T22:25:19.072Z,15.23
2023-05-15T22:29:27.795Z,7.50
2023-05-15T22:33:36.379Z,7.93
2023-05-15T22:37:46.807Z,5.87
2023-05-15T22:41:55.720Z,5.50
2023-05-15T22:46:04.572Z,7.40
2023-05-15T22:50:13.190Z,7.67
2023-05-15T22:54:22.348Z,6.10
2023-05-15T22:58:32.351Z,7.33
2023-05-15T23:02:43.446Z,10.80
2023-05-15T23:06:51.731Z,8.07
2023-05-15T23:11:00.741Z,9.50
2023-05-15T23:15:12.550Z,7.80
2023-05-15T23:19:21.226Z,8.20
2023-05-15T23:23:30.007Z,7.60
2023-05-15T23:27:58.092Z,5.53
2023-05-15T23:32:07.780Z,4.70
2023-05-15T23:36:16.482Z,5.10
2023-05-15T23:40:25.351Z,5.20
2023-05-15T23:44:34.247Z,3.00
2023-05-15T23:48:42.797Z,7.40
2023-05-15T23:52:51.467Z,3.80
2023-05-15T23:57:00.077Z,5.53
